Time;durP1;ratioP1;P1;durP2;ratioP2;P2;SDS_P1;SDS_P2;PMS_P1;PMS_P2;Temp;Humidity;BMP_temperature;BMP_pressure;BME280_temperature;BME280_humidity;BME280_pressure;Samples;Min_cycle;Max_cycle;Signal;HPM_P1;HPM_P2
2023/05/12 00:02:02;;;;;;;6.43;4.18;;;;;;;12.48;72.80;101135.78;4992655;28;20069;-87
2023/05/12 00:04:29;;;;;;;5.30;4.57;;;;;;;12.63;70.37;101131.03;5002125;28;20499;-86
2023/05/12 00:06:56;;;;;;;7.75;4.40;;;;;;;12.65;70.60;101126.56;4994492;28;20042;-86
2023/05/12 00:09:22;;;;;;;5.07;4.45;;;;;;;12.64;71.74;101134.53;5003587;28;20136;-86
2023/05/12 00:11:49;;;;;;;6.85;4.50;;;;;;;12.71;68.17;101130.00;4992556;28;20038;-86
2023/05/12 00:14:16;;;;;;;7.65;4.30;;;;;;;12.81;67.12;101121.78;5009950;28;20042;-86
2023/05/12 00:16:42;;;;;;;5.60;3.92;;;;;;;12.59;69.46;101125.81;4981374;28;20046;-84
2023/05/12 00:19:09;;;;;;;5.65;4.28;;;;;;;12.81;69.18;101131.53;4999810;28;20062;-86
2023/05/12 00:21:36;;;;;;;6.75;4.32;;;;;;;12.71;69.37;101135.28;4994911;28;20046;-87
2023/05/12 00:24:03;;;;;;;7.78;4.82;;;;;;;12.85;71.16;101130.53;4995580;28;20042;-86
2023/05/12 00:26:29;;;;;;;6.82;4.43;;;;;;;12.75;69.39;101134.31;4995731;22;20085;-86
2023/05/12 00:28:56;;;;;;;5.80;4.55;;;;;;;12.60;71.52;101127.53;4998457;28;20033;-85
2023/05/12 00:31:23;;;;;;;5.40;4.38;;;;;;;12.56;69.69;101136.47;5011724;28;20041;-86
2023/05/12 00:33:49;;;;;;;5.78;4.10;;;;;;;12.48;69.59;101135.78;5021752;28;20038;-88
2023/05/12 00:36:16;;;;;;;6.75;4.30;;;;;;;12.50;67.20;101132.19;5004659;28;20037;-85
2023/05/12 00:38:43;;;;;;;6.13;4.13;;;;;;;12.48;66.15;101134.00;5011110;28;20570;-87
2023/05/12 00:41:09;;;;;;;7.45;4.47;;;;;;;12.38;68.85;101133.31;5007955;28;20045;-86
2023/05/12 00:43:37;;;;;;;7.15;4.55;;;;;;;12.29;69.41;101136.16;5019192;28;20111;-88
2023/05/12 00:46:04;;;;;;;7.68;4.47;;;;;;;12.25;70.65;101134.44;5000342;28;20099;-85
2023/05/12 00:48:31;;;;;;;6.30;4.22;;;;;;;12.19;69.32;101139.88;4996987;28;20045;-87
2023/05/12 00:50:59;;;;;;;7.70;4.97;;;;;;;12.07;70.77;101133.03;5016802;28;20091;-84
2023/05/12 00:53:26;;;;;;;6.57;4.53;;;;;;;12.11;69.64;101136.50;5008876;28;20584;-87
2023/05/12 00:56:07;;;;;;;6.28;4.00;;;;;;;12.08;70.23;101133.91;5019879;28;20105;-85
2023/05/12 00:58:33;;;;;;;6.18;3.92;;;;;;;11.88;70.74;101136.94;5025822;28;20042;-83
2023/05/12 01:01:00;;;;;;;6.00;4.22;;;;;;;11.94;71.70;101135.94;5021086;28;20558;-86
2023/05/12 01:03:28;;;;;;;6.43;4.70;;;;;;;11.76;72.84;101135.31;4997721;28;20049;-85
2023/05/12 01:05:59;;;;;;;5.75;4.10;;;;;;;11.78;71.01;101128.25;5015325;28;20060;-87
2023/05/12 01:08:27;;;;;;;6.57;4.28;;;;;;;11.56;71.46;101135.69;4998920;28;20395;-87
2023/05/12 01:10:54;;;;;;;5.50;4.47;;;;;;;11.60;72.87;101136.50;4999197;28;20045;-85
2023/05/12 01:13:20;;;;;;;6.15;4.30;;;;;;;11.56;72.61;101142.75;5015574;28;20050;-84
2023/05/12 01:15:47;;;;;;;6.38;4.25;;;;;;;11.50;72.44;101135.78;5031896;28;20037;-83
2023/05/12 01:18:15;;;;;;;5.57;4.28;;;;;;;11.39;73.53;101131.56;5029777;28;20045;-86
2023/05/12 01:20:43;;;;;;;6.35;4.70;;;;;;;11.45;72.13;101142.06;5012219;28;20038;-85
2023/05/12 01:23:10;;;;;;;5.97;4.53;;;;;;;11.30;72.87;101144.97;5003654;28;20065;-85
2023/05/12 01:25:38;;;;;;;6.82;4.47;;;;;;;11.33;72.96;101143.13;5008595;28;20041;-88
2023/05/12 01:28:05;;;;;;;7.55;4.28;;;;;;;11.31;72.72;101144.06;4995515;28;20049;-86
2023/05/12 01:30:32;;;;;;;9.38;4.50;;;;;;;11.41;71.99;101141.22;4990063;28;20042;-83
2023/05/12 01:32:59;;;;;;;8.38;5.03;;;;;;;11.33;74.58;101136.97;4998423;28;20041;-88
2023/05/12 01:35:26;;;;;;;5.50;4.50;;;;;;;11.23;75.49;101146.81;5032111;28;20045;-83
2023/05/12 01:37:52;;;;;;;4.95;4.53;;;;;;;11.22;76.22;101137.13;4998488;28;20061;-87
2023/05/12 01:40:19;;;;;;;5.82;4.35;;;;;;;11.18;76.64;101140.72;4996952;28;20479;-87
2023/05/12 01:42:46;;;;;;;5.85;4.20;;;;;;;11.12;78.17;101146.97;4998121;28;20041;-86
2023/05/12 01:45:13;;;;;;;5.45;3.90;;;;;;;11.02;79.15;101141.88;5012880;28;20052;-87
2023/05/12 01:47:39;;;;;;;5.30;4.40;;;;;;;11.11;78.44;101152.31;4991818;28;20042;-85
2023/05/12 01:50:06;;;;;;;8.88;5.35;;;;;;;10.97;79.49;101147.19;4997314;28;20068;-85
2023/05/12 01:52:33;;;;;;;14.02;4.90;;;;;;;10.89;80.28;101152.59;5010192;28;20051;-87
2023/05/12 01:55:00;;;;;;;6.82;4.68;;;;;;;10.96;79.76;101143.69;5021738;28;20109;-86
2023/05/12 01:57:27;;;;;;;5.85;5.07;;;;;;;10.90;81.10;101154.34;4994183;28;20109;-86
2023/05/12 01:59:53;;;;;;;5.43;4.65;;;;;;;10.85;80.50;101150.91;4985280;28;20054;-87
2023/05/12 02:02:20;;;;;;;6.82;4.70;;;;;;;10.77;82.20;101152.78;5005396;28;20040;-85
2023/05/12 02:04:47;;;;;;;5.70;5.05;;;;;;;10.65;82.91;101152.91;5008430;28;20100;-87
2023/05/12 02:07:14;;;;;;;7.83;5.20;;;;;;;10.53;83.00;101153.09;5011416;28;20072;-83
2023/05/12 02:09:41;;;;;;;5.45;3.92;;;;;;;10.65;83.09;101153.78;5050719;28;20034;-86
2023/05/12 02:12:08;;;;;;;6.88;4.50;;;;;;;10.55;83.62;101157.44;4997750;28;20046;-86
2023/05/12 02:14:34;;;;;;;10.18;5.75;;;;;;;10.46;84.35;101162.84;5013850;28;20052;-87
2023/05/12 02:17:01;;;;;;;5.85;4.50;;;;;;;10.32;85.92;101165.63;4988374;28;20041;-86
2023/05/12 02:19:28;;;;;;;6.95;4.40;;;;;;;10.28;85.31;101171.00;5012943;28;20049;-85
2023/05/12 02:21:54;;;;;;;5.45;4.50;;;;;;;10.24;84.34;101163.97;5013576;28;20055;-86
2023/05/12 02:24:21;;;;;;;7.33;5.07;;;;;;;10.24;84.80;101171.91;4998302;28;20064;-86
2023/05/12 02:26:48;;;;;;;7.80;4.57;;;;;;;10.25;84.00;101178.94;5012093;28;20044;-87
2023/05/12 02:29:15;;;;;;;5.40;4.70;;;;;;;10.15;85.36;101179.00;4994929;28;20045;-86
2023/05/12 02:31:42;;;;;;;6.40;4.80;;;;;;;10.07;85.59;101177.31;4992349;28;20042;-86
2023/05/12 02:34:08;;;;;;;6.53;4.77;;;;;;;9.93;87.62;101187.16;5002888;28;20529;-87
2023/05/12 02:36:35;;;;;;;6.60;4.30;;;;;;;9.93;86.85;101176.59;4995604;28;20048;-86
2023/05/12 02:39:02;;;;;;;5.43;4.93;;;;;;;9.88;86.48;101179.28;5004747;28;20422;-86
2023/05/12 02:41:28;;;;;;;6.87;4.90;;;;;;;9.84;87.18;101182.84;4994246;28;20254;-86
2023/05/12 02:43:55;;;;;;;6.57;4.60;;;;;;;9.75;87.03;101174.97;4997602;28;20038;-86
2023/05/12 02:46:22;;;;;;;6.37;5.53;;;;;;;9.65;88.49;101181.22;5019584;28;20017;-87
2023/05/12 02:48:49;;;;;;;5.50;4.82;;;;;;;9.52;89.85;101177.84;5019828;28;20026;-87
2023/05/12 02:51:15;;;;;;;8.37;5.80;;;;;;;9.61;89.28;101174.25;5034091;28;20046;-87
2023/05/12 02:53:42;;;;;;;8.10;5.30;;;;;;;9.54;90.18;101173.41;5029700;28;20045;-87
2023/05/12 02:56:09;;;;;;;7.07;5.47;;;;;;;9.45;91.35;101171.72;5005817;28;20053;-85
2023/05/12 02:58:36;;;;;;;7.30;5.57;;;;;;;9.29;92.66;101173.59;5019080;28;20038;-87
2023/05/12 03:01:02;;;;;;;8.13;5.37;;;;;;;9.26;93.79;101175.41;5018618;28;20041;-86
2023/05/12 03:03:36;;;;;;;7.78;5.72;;;;;;;9.29;93.63;101176.22;5008517;28;20042;-86
2023/05/12 03:06:04;;;;;;;5.97;4.83;;;;;;;9.20;93.97;101170.16;4983469;28;20060;-86
2023/05/12 03:08:31;;;;;;;7.97;5.17;;;;;;;9.14;94.98;101171.06;4999005;28;20054;-86
2023/05/12 03:10:59;;;;;;;7.47;5.87;;;;;;;9.08;94.36;101178.13;4998241;28;20053;-85
2023/05/12 03:13:26;;;;;;;9.13;6.33;;;;;;;9.10;95.78;101171.09;5000526;28;20140;-86
2023/05/12 03:15:53;;;;;;;8.30;5.67;;;;;;;9.08;96.06;101180.75;5010650;28;20435;-86
2023/05/12 03:18:20;;;;;;;7.63;5.70;;;;;;;9.00;96.40;101179.06;5013722;28;20054;-86
2023/05/12 03:20:46;;;;;;;7.37;5.40;;;;;;;8.85;98.07;101180.91;5000651;28;20037;-86
2023/05/12 03:23:13;;;;;;;8.13;5.57;;;;;;;8.92;97.50;101187.91;5007968;28;20042;-86
2023/05/12 03:25:40;;;;;;;8.47;5.70;;;;;;;8.91;98.50;101186.13;5006029;28;20038;-86
2023/05/12 03:28:06;;;;;;;7.00;5.47;;;;;;;8.89;98.83;101194.03;5018660;28;20069;-87
2023/05/12 03:30:33;;;;;;;6.83;5.87;;;;;;;8.85;98.58;101192.31;5005664;28;20041;-86
2023/05/12 03:33:00;;;;;;;6.50;5.30;;;;;;;8.80;99.04;101185.31;5017785;28;20033;-86
2023/05/12 03:35:27;;;;;;;6.73;4.73;;;;;;;8.80;99.02;101190.56;5000514;28;20045;-86
2023/05/12 03:37:54;;;;;;;6.87;6.10;;;;;;;8.78;99.41;101190.59;5017995;28;20045;-85
2023/05/12 03:40:20;;;;;;;7.70;5.87;;;;;;;8.81;99.06;101190.56;4999730;28;20045;-86
2023/05/12 03:42:47;;;;;;;7.90;5.63;;;;;;;8.69;99.31;101190.63;5008778;28;20041;-87
2023/05/12 03:45:14;;;;;;;6.87;5.57;;;;;;;8.61;100.00;101197.69;5008220;28;20057;-86
2023/05/12 03:47:41;;;;;;;7.87;5.93;;;;;;;8.58;100.00;101195.97;5031750;28;20057;-86
2023/05/12 03:50:08;;;;;;;9.13;5.97;;;;;;;8.64;99.72;101195.03;5016653;28;20103;-86
2023/05/12 03:52:37;;;;;;;8.90;5.77;;;;;;;8.59;99.66;101199.47;5016457;28;20037;-85
2023/05/12 03:55:05;;;;;;;11.80;5.50;;;;;;;8.61;100.00;101193.31;4987116;28;20137;-87
2023/05/12 03:57:35;;;;;;;7.60;5.97;;;;;;;8.64;99.72;101208.22;5029112;28;20045;-86
2023/05/12 04:00:03;;;;;;;7.73;5.50;;;;;;;8.62;100.00;101202.06;5009011;28;20038;-86
2023/05/12 04:02:30;;;;;;;6.27;5.57;;;;;;;8.61;100.00;101206.47;5012458;28;20045;-86
2023/05/12 04:04:57;;;;;;;7.33;6.00;;;;;;;8.66;100.00;101209.06;4995266;28;20103;-86
2023/05/12 04:07:25;;;;;;;6.53;5.47;;;;;;;8.62;100.00;101209.97;5015461;28;20128;-85
2023/05/12 04:09:51;;;;;;;7.60;5.57;;;;;;;8.68;100.00;101207.31;5021579;28;20044;-86
2023/05/12 04:12:18;;;;;;;8.30;5.80;;;;;;;8.64;100.00;101214.34;4984324;28;20457;-86
2023/05/12 04:14:45;;;;;;;9.23;5.90;;;;;;;8.61;100.00;101211.75;5002854;28;20038;-87
2023/05/12 04:17:12;;;;;;;6.60;5.53;;;;;;;8.66;100.00;101216.97;5008567;28;20044;-86
2023/05/12 04:19:38;;;;;;;7.33;5.60;;;;;;;8.69;100.00;101211.72;4992673;28;20038;-86
2023/05/12 04:22:05;;;;;;;10.43;5.87;;;;;;;8.73;100.00;101211.66;5017729;28;20041;-86
2023/05/12 04:24:32;;;;;;;8.83;6.07;;;;;;;8.70;100.00;101214.34;5006525;28;20038;-87
2023/05/12 04:26:59;;;;;;;8.03;6.23;;;;;;;8.92;99.13;101215.13;4996040;28;20042;-86
2023/05/12 04:29:26;;;;;;;6.70;5.77;;;;;;;8.80;100.00;101212.53;4997234;28;20045;-87
2023/05/12 04:31:54;;;;;;;7.00;5.87;;;;;;;8.87;100.00;101210.75;4992188;28;20068;-87
2023/05/12 04:34:21;;;;;;;6.73;5.33;;;;;;;8.78;100.00;101216.06;4995399;28;20149;-87
2023/05/12 04:36:47;;;;;;;8.70;6.17;;;;;;;8.89;100.00;101217.75;4995030;28;20045;-86
2023/05/12 04:39:14;;;;;;;7.53;5.97;;;;;;;8.92;100.00;101220.41;5011692;28;20116;-87
2023/05/12 04:41:41;;;;;;;6.60;5.87;;;;;;;8.80;100.00;101224.84;4996662;28;20041;-86
2023/05/12 04:44:07;;;;;;;8.13;6.43;;;;;;;8.89;100.00;101225.66;5012779;28;20052;-87
2023/05/12 04:46:34;;;;;;;10.50;5.90;;;;;;;8.88;100.00;101234.44;5026798;28;20509;-87
2023/05/12 04:49:01;;;;;;;14.63;7.00;;;;;;;9.01;100.00;101230.88;4996777;28;20045;-87
2023/05/12 04:51:28;;;;;;;9.60;5.57;;;;;;;8.99;100.00;101227.38;5013089;28;20041;-86
2023/05/12 04:53:55;;;;;;;6.77;5.47;;;;;;;8.97;100.00;101237.03;4995610;28;20577;-86
2023/05/12 04:56:22;;;;;;;9.07;5.57;;;;;;;9.12;100.00;101237.88;5007558;28;20038;-86
2023/05/12 04:58:48;;;;;;;11.07;6.20;;;;;;;9.36;99.71;101235.09;5012929;28;20042;-87
2023/05/12 05:01:15;;;;;;;13.80;5.87;;;;;;;9.44;98.88;101235.91;5011714;28;20052;-86
2023/05/12 05:03:42;;;;;;;12.57;6.63;;;;;;;9.59;99.49;101240.22;4989989;28;20045;-87
2023/05/12 05:06:09;;;;;;;12.63;7.13;;;;;;;9.64;100.00;101243.69;4998186;28;20050;-87
2023/05/12 05:08:36;;;;;;;8.37;5.70;;;;;;;9.64;96.31;101241.03;5023622;28;20046;-87
2023/05/12 05:11:03;;;;;;;9.17;5.73;;;;;;;9.85;95.17;101242.66;5013250;28;20063;-88
2023/05/12 05:13:30;;;;;;;6.83;5.37;;;;;;;9.99;94.12;101250.44;4994974;28;20041;-86
2023/05/12 05:15:56;;;;;;;6.77;5.53;;;;;;;10.14;89.92;101245.91;4997880;28;20120;-87
2023/05/12 05:18:28;;;;;;;10.63;6.00;;;;;;;10.69;87.01;101237.44;4997486;28;20103;-86
2023/05/12 05:20:55;;;;;;;11.05;6.07;;;;;;;11.03;85.92;101244.06;5003199;28;20097;-87
2023/05/12 05:23:25;;;;;;;7.60;5.10;;;;;;;11.17;82.44;101248.25;5013361;28;20065;-87
2023/05/12 05:26:13;;;;;;;;;;;;;;;;;;;;;
2023/05/12 05:29:10;;;;;;;5.45;4.90;;;;;;;11.41;80.73;101254.13;5026430;28;20051;-85
2023/05/12 05:31:37;;;;;;;7.75;5.07;;;;;;;11.73;76.77;101254.50;4990569;28;20045;-85
2023/05/12 05:34:04;;;;;;;9.25;4.97;;;;;;;12.40;74.53;101253.38;4979203;28;20042;-85
2023/05/12 05:36:31;;;;;;;7.60;5.00;;;;;;;12.99;69.91;101254.91;4994256;28;20450;-86
2023/05/12 05:38:57;;;;;;;6.00;4.80;;;;;;;13.35;68.51;101248.81;4995432;28;20037;-84
2023/05/12 05:41:24;;;;;;;7.60;5.05;;;;;;;13.43;68.33;101251.28;5011643;28;20061;-86
2023/05/12 05:43:51;;;;;;;6.43;4.80;;;;;;;13.36;68.09;101255.88;4997713;28;20087;-87
2023/05/12 05:46:17;;;;;;;9.15;5.43;;;;;;;13.05;68.45;101260.94;4995452;28;20053;-83
2023/05/12 05:48:44;;;;;;;6.57;4.75;;;;;;;12.88;73.65;101266.59;4988161;28;20042;-85
2023/05/12 05:51:11;;;;;;;6.30;4.60;;;;;;;12.79;69.26;101257.97;4997232;28;20047;-84
2023/05/12 05:53:37;;;;;;;8.93;4.90;;;;;;;13.08;69.28;101266.19;4994937;28;20041;-85
2023/05/12 05:56:04;;;;;;;7.53;5.43;;;;;;;13.23;66.92;101265.03;5010644;28;20051;-85
2023/05/12 05:58:31;;;;;;;9.13;5.55;;;;;;;13.26;68.55;101270.25;4996454;28;20037;-84
2023/05/12 06:00:59;;;;;;;8.13;4.93;;;;;;;13.71;65.21;101270.13;5012364;28;20049;-84
2023/05/12 06:03:26;;;;;;;8.80;5.50;;;;;;;14.81;60.60;101269.97;5010540;28;20053;-85
2023/05/12 06:05:52;;;;;;;7.63;5.38;;;;;;;15.91;57.36;101262.16;4998845;28;20609;-84
2023/05/12 06:08:19;;;;;;;6.07;5.13;;;;;;;17.00;50.15;101266.38;4992696;28;20041;-85
2023/05/12 06:10:46;;;;;;;5.70;4.70;;;;;;;17.23;50.96;101266.34;5005809;28;20071;-85
2023/05/12 06:13:13;;;;;;;6.97;5.28;;;;;;;17.63;49.02;101276.34;4978043;28;20069;-85
2023/05/12 06:15:39;;;;;;;6.03;4.97;;;;;;;17.79;47.97;101276.66;5024492;28;20419;-84
2023/05/12 06:18:06;;;;;;;9.63;5.53;;;;;;;18.15;49.40;101278.72;5012129;28;20049;-85
2023/05/12 06:20:33;;;;;;;8.68;4.80;;;;;;;18.64;48.08;101271.28;4993921;28;20124;-84
2023/05/12 06:23:00;;;;;;;8.15;4.72;;;;;;;18.70;45.85;101276.41;4995978;28;20072;-84
2023/05/12 06:25:26;;;;;;;6.30;5.03;;;;;;;18.39;44.59;101275.00;4997365;28;20052;-83
2023/05/12 06:27:53;;;;;;;5.35;4.28;;;;;;;18.43;44.84;101281.13;4995958;28;20045;-84
2023/05/12 06:30:20;;;;;;;7.93;4.90;;;;;;;18.84;45.87;101285.56;5002375;28;20041;-84
2023/05/12 06:32:47;;;;;;;6.75;5.25;;;;;;;18.62;43.76;101281.19;5015447;28;20714;-84
2023/05/12 06:35:13;;;;;;;7.97;4.97;;;;;;;19.10;45.41;101281.69;4999357;28;20041;-84
2023/05/12 06:37:40;;;;;;;14.18;5.18;;;;;;;18.70;45.64;101287.09;4999193;28;20041;-85
2023/05/12 06:40:07;;;;;;;6.93;4.55;;;;;;;18.72;45.47;101288.75;4995279;28;20057;-84
2023/05/12 06:42:37;;;;;;;8.05;4.97;;;;;;;18.15;45.34;101284.06;5015803;28;20589;-84
2023/05/12 06:45:05;;;;;;;8.93;4.95;;;;;;;18.58;46.71;101285.78;4999742;28;20323;-85
2023/05/12 06:47:32;;;;;;;6.50;4.70;;;;;;;18.83;46.93;101293.63;5007020;28;20038;-84
2023/05/12 06:49:59;;;;;;;6.70;5.03;;;;;;;18.94;44.97;101286.00;4999148;28;20041;-84
2023/05/12 06:52:26;;;;;;;6.93;5.20;;;;;;;18.90;44.73;101294.22;5006669;28;20046;-85
2023/05/12 06:54:52;;;;;;;5.43;4.65;;;;;;;18.86;44.65;101290.84;4998939;28;20585;-84
2023/05/12 06:57:19;;;;;;;5.55;4.55;;;;;;;19.07;46.22;101287.16;5014752;28;20037;-84
2023/05/12 06:59:46;;;;;;;4.78;4.38;;;;;;;19.33;45.81;101288.63;5006273;28;20034;-82
2023/05/12 07:02:12;;;;;;;7.57;5.07;;;;;;;19.36;44.96;101282.28;5022484;28;20052;-84
2023/05/12 07:04:39;;;;;;;6.85;4.47;;;;;;;19.31;43.81;101289.66;5029277;28;20095;-83
2023/05/12 07:07:06;;;;;;;5.93;4.32;;;;;;;19.47;43.57;101284.44;5018543;28;20041;-81
2023/05/12 07:09:33;;;;;;;12.80;5.07;;;;;;;19.38;44.39;101289.31;5023532;28;20052;-83
2023/05/12 07:12:00;;;;;;;5.43;4.13;;;;;;;19.65;45.06;101283.59;5013440;28;20038;-84
2023/05/12 07:14:27;;;;;;;8.50;4.57;;;;;;;19.58;43.32;101283.03;4996641;28;20648;-83
2023/05/12 07:16:59;;;;;;;5.18;4.65;;;;;;;19.88;44.99;101288.72;4997622;28;20498;-82
2023/05/12 07:19:29;;;;;;;279.02;34.05;;;;;;;20.20;43.64;101289.81;5011595;28;20054;-83
2023/05/12 07:21:59;;;;;;;6.90;5.15;;;;;;;19.71;42.23;101285.13;5013677;28;20132;-83
2023/05/12 07:24:26;;;;;;;143.55;20.90;;;;;;;19.98;43.18;101288.25;4997309;28;20476;-83
2023/05/12 07:27:02;;;;;;;14.35;5.28;;;;;;;19.92;45.64;101292.09;4999231;28;20049;-83
2023/05/12 07:29:29;;;;;;;8.73;5.50;;;;;;;20.27;43.50;101287.69;5029679;28;20049;-83
2023/05/12 07:32:00;;;;;;;5.68;4.45;;;;;;;20.45;42.34;101294.81;4997906;28;20061;-83
2023/05/12 07:34:27;;;;;;;8.38;5.03;;;;;;;20.47;40.56;101292.06;5010287;28;20060;-81
2023/05/12 07:36:54;;;;;;;8.20;5.28;;;;;;;20.33;42.46;101287.34;5023705;28;20579;-83
2023/05/12 07:39:22;;;;;;;6.90;4.20;;;;;;;20.66;42.66;101294.63;5004944;28;20053;-83
2023/05/12 07:41:52;;;;;;;5.72;4.65;;;;;;;20.44;40.67;101290.41;5011014;28;20116;-83
2023/05/12 07:44:25;;;;;;;5.32;4.38;;;;;;;20.87;41.96;101288.16;5001164;28;20053;-81
2023/05/12 07:46:53;;;;;;;7.53;4.72;;;;;;;20.14;40.59;101291.91;5010729;28;20088;-85
2023/05/12 07:49:26;;;;;;;7.20;4.60;;;;;;;20.07;41.61;101290.47;5010308;28;20040;-84
2023/05/12 07:51:53;;;;;;;6.20;4.60;;;;;;;20.67;42.87;101285.63;5007637;28;20057;-84
2023/05/12 07:54:19;;;;;;;6.75;3.97;;;;;;;21.22;40.84;101282.69;4995988;28;20084;-83
2023/05/12 07:56:46;;;;;;;6.75;4.45;;;;;;;21.03;39.12;101291.75;4996773;28;20484;-82
2023/05/12 07:59:22;;;;;;;5.68;4.57;;;;;;;21.12;39.40;101287.69;5005620;28;20465;-82
2023/05/12 08:01:55;;;;;;;7.97;4.38;;;;;;;20.90;40.44;101284.41;5012818;28;20564;-82
2023/05/12 08:04:23;;;;;;;8.10;5.05;;;;;;;21.11;39.45;101293.16;5011927;28;20049;-83
2023/05/12 08:06:52;;;;;;;7.60;4.78;;;;;;;21.45;38.27;101279.63;5013307;28;20038;-84
2023/05/12 08:09:19;;;;;;;4.70;4.25;;;;;;;21.62;38.50;101286.75;5011424;28;20067;-83
2023/05/12 08:11:53;;;;;;;6.20;4.25;;;;;;;21.99;39.69;101288.19;5020878;28;20037;-84
2023/05/12 08:14:26;;;;;;;5.68;4.47;;;;;;;21.89;37.88;101285.16;5031815;28;20068;-85
2023/05/12 08:17:06;;;;;;;8.65;4.55;;;;;;;21.97;38.44;101286.53;5022751;28;20041;-81
2023/05/12 08:19:34;;;;;;;;;;;;;;;21.98;36.75;101282.91;5015746;28;20040;-83
2023/05/12 08:22:08;;;;;;;19.95;5.80;;;;;;;22.06;38.38;101280.63;5027426;28;19928;-84
2023/05/12 08:24:41;;;;;;;4.88;4.10;;;;;;;21.99;37.82;101282.78;5009143;28;20404;-84
2023/05/12 08:27:13;;;;;;;8.25;4.68;;;;;;;22.24;38.17;101284.94;5004422;28;20045;-83
2023/05/12 08:29:40;;;;;;;805.70;132.40;;;;;;;21.79;37.39;101281.28;4995635;28;20029;-83
2023/05/12 08:32:11;;;;;;;84.72;13.95;;;;;;;21.74;39.18;101291.41;5013443;28;20422;-83
2023/05/12 08:34:43;;;;;;;18.92;4.75;;;;;;;21.59;38.28;101294.97;4997666;28;20043;-83
2023/05/12 08:37:20;;;;;;;7.65;4.25;;;;;;;22.03;39.90;101291.53;4996793;28;20041;-82
2023/05/12 08:39:47;;;;;;;6.18;4.35;;;;;;;22.34;38.17;101296.91;4994789;28;20510;-82
2023/05/12 08:42:39;;;;;;;6.32;4.28;;;;;;;22.18;36.62;101291.56;5013731;28;20033;-84
2023/05/12 08:45:12;;;;;;;5.00;3.97;;;;;;;21.80;35.18;101288.38;5002298;28;20046;-83
2023/05/12 08:47:45;;;;;;;4.90;3.45;;;;;;;22.47;35.77;101291.66;5012173;28;20037;-82
2023/05/12 08:50:13;;;;;;;5.13;3.83;;;;;;;22.40;34.47;101304.63;5006759;28;20048;-84
2023/05/12 08:52:40;;;;;;;6.50;4.10;;;;;;;22.44;35.41;101287.31;5016809;28;20036;-84
2023/05/12 08:55:08;;;;;;;5.25;3.95;;;;;;;22.67;33.11;101287.75;5006883;28;21497;-85
2023/05/12 08:57:35;;;;;;;6.18;3.50;;;;;;;22.14;34.01;101291.84;4988990;28;20048;-85
2023/05/12 09:00:07;;;;;;;4.97;3.75;;;;;;;22.19;35.71;101282.50;5010568;28;20048;-85
2023/05/12 09:02:36;;;;;;;5.15;3.38;;;;;;;22.42;37.19;101285.69;5009505;28;20096;-84
2023/05/12 09:05:19;;;;;;;4.88;3.70;;;;;;;22.93;34.40;101294.25;5027754;28;20046;-84
2023/05/12 09:07:47;;;;;;;49.10;9.57;;;;;;;23.21;33.84;101282.63;5009639;28;20042;-84
2023/05/12 09:10:18;;;;;;;24.60;6.20;;;;;;;23.46;32.47;101276.53;5018239;28;20054;-85
2023/05/12 09:13:13;;;;;;;5.45;3.47;;;;;;;23.35;32.73;101279.03;5028388;28;20394;-82
2023/05/12 09:15:43;;;;;;;7.40;4.40;;;;;;;23.28;31.24;101279.44;5021054;28;20065;-83
2023/05/12 09:18:11;;;;;;;5.88;3.75;;;;;;;23.27;32.29;101283.09;5005367;28;20505;-82
2023/05/12 09:20:38;;;;;;;5.55;3.47;;;;;;;22.88;30.01;101274.84;5017198;28;20752;-82
2023/05/12 09:23:18;;;;;;;4.88;3.63;;;;;;;22.98;31.01;101267.91;5012402;28;20047;-83
2023/05/12 09:25:48;;;;;;;5.10;3.20;;;;;;;23.59;31.27;101275.66;5018080;28;20041;-84
2023/05/12 09:28:15;;;;;;;6.60;3.78;;;;;;;23.55;30.19;101276.81;5009856;28;20080;-82
2023/05/12 09:30:41;;;;;;;5.70;3.50;;;;;;;23.83;30.64;101280.41;4987720;28;20124;-83
2023/05/12 09:33:12;;;;;;;6.63;3.75;;;;;;;23.70;29.46;101279.47;5042649;28;20048;-86
2023/05/12 09:35:44;;;;;;;6.18;3.35;;;;;;;23.82;29.81;101281.38;4994668;28;20037;-81
2023/05/12 09:38:12;;;;;;;9.43;4.32;;;;;;;23.33;30.13;101287.22;4988912;28;20132;-83
2023/05/12 09:40:39;;;;;;;4.03;3.15;;;;;;;23.41;30.02;101279.53;5002650;28;20653;-83
2023/05/12 09:43:07;;;;;;;6.25;3.35;;;;;;;22.98;29.14;101278.69;5012191;28;20048;-84
2023/05/12 09:45:37;;;;;;;6.13;3.50;;;;;;;23.35;30.70;101284.44;4987211;28;20042;-82
2023/05/12 09:48:09;;;;;;;5.88;3.38;;;;;;;23.31;30.10;101281.09;4997972;28;20414;-82
2023/05/12 09:50:49;;;;;;;6.57;3.70;;;;;;;23.10;29.36;101277.03;5011929;28;20048;-87
2023/05/12 09:53:17;;;;;;;27.23;6.63;;;;;;;22.69;29.53;101277.75;4995669;28;20448;-82
2023/05/12 09:55:46;;;;;;;10.23;4.15;;;;;;;22.98;29.83;101276.00;4992788;28;20042;-84
2023/05/12 09:58:18;;;;;;;4.97;3.58;;;;;;;22.98;29.73;101271.47;5000456;28;20053;-85
2023/05/12 10:00:46;;;;;;;4.57;3.60;;;;;;;22.98;29.99;101276.00;5017385;28;20391;-83
2023/05/12 10:03:16;;;;;;;12.50;4.13;;;;;;;23.01;30.63;101265.00;5004079;23;20129;-82
2023/05/12 10:05:53;;;;;;;6.20;3.40;;;;;;;23.23;30.76;101262.69;4978508;28;20065;-83
2023/05/12 10:08:43;;;;;;;4.10;3.65;;;;;;;23.86;30.72;101248.69;4996842;28;20046;-83
2023/05/12 10:11:10;;;;;;;6.57;3.45;;;;;;;24.19;30.58;101260.03;4994754;28;20046;-85
2023/05/12 10:13:37;;;;;;;5.50;3.42;;;;;;;24.38;30.88;101255.13;4997425;28;20571;-83
2023/05/12 10:16:05;;;;;;;5.95;3.85;;;;;;;24.65;29.40;101250.53;4985607;28;20041;-84
2023/05/12 10:18:32;;;;;;;6.63;4.20;;;;;;;24.26;29.48;101262.19;4996781;28;20395;-84
2023/05/12 10:21:00;;;;;;;7.40;4.07;;;;;;;23.54;29.95;101261.59;4977463;28;20060;-84
2023/05/12 10:23:27;;;;;;;5.93;3.55;;;;;;;23.32;30.76;101261.25;4992553;28;20042;-85
2023/05/12 10:26:00;;;;;;;8.27;3.78;;;;;;;23.75;30.97;101250.38;4990907;28;20137;-85
2023/05/12 10:28:28;;;;;;;5.38;4.40;;;;;;;24.31;29.72;101256.50;4997480;28;20061;-83
2023/05/12 10:30:56;;;;;;;7.60;4.18;;;;;;;23.28;28.87;101257.00;4997007;28;20128;-85
2023/05/12 10:33:24;;;;;;;5.63;3.95;;;;;;;23.15;29.18;101247.97;4994576;28;20123;-82
2023/05/12 10:35:51;;;;;;;4.45;3.70;;;;;;;23.43;30.50;101247.91;4978435;28;20487;-83
2023/05/12 10:38:21;;;;;;;5.60;3.95;;;;;;;23.06;28.84;101259.34;4980214;28;20092;-84
2023/05/12 10:40:53;;;;;;;5.78;3.72;;;;;;;23.41;28.79;101249.84;5003621;28;20048;-83
2023/05/12 10:43:27;;;;;;;4.95;3.65;;;;;;;23.98;30.16;101255.13;5004848;28;20040;-83
2023/05/12 10:46:15;;;;;;;5.22;3.58;;;;;;;23.23;30.19;101251.03;5010469;28;20052;-84
2023/05/12 10:48:54;;;;;;;6.60;4.07;;;;;;;23.08;29.44;101246.63;5021984;28;20045;-84
2023/05/12 10:51:29;;;;;;;4.28;3.65;;;;;;;23.61;27.82;101247.72;4999633;28;20827;-84
2023/05/12 10:53:57;;;;;;;8.10;3.30;;;;;;;23.37;27.58;101233.97;5008311;28;20033;-84
2023/05/12 10:56:29;;;;;;;5.10;3.38;;;;;;;23.64;27.17;101245.69;4995008;28;20453;-83
2023/05/12 10:59:16;;;;;;;5.20;3.58;;;;;;;22.91;27.72;101231.53;5008086;28;20041;-82
2023/05/12 11:01:59;;;;;;;5.20;3.38;;;;;;;23.33;27.19;101251.31;5018585;28;20037;-83
2023/05/12 11:04:40;;;;;;;5.38;3.25;;;;;;;23.54;27.46;101237.31;4996389;28;20658;-83
2023/05/12 11:07:08;;;;;;;5.07;3.50;;;;;;;23.70;27.81;101241.72;4993719;28;20046;-83
2023/05/12 11:09:37;;;;;;;5.47;2.75;;;;;;;23.79;27.53;101236.56;5001163;28;20037;-84
2023/05/12 11:12:25;;;;;;;4.53;3.30;;;;;;;24.10;27.91;101245.31;4993549;28;20045;-83
2023/05/12 11:14:52;;;;;;;5.05;3.65;;;;;;;24.45;27.81;101250.16;5004428;28;20046;-83
2023/05/12 11:17:19;;;;;;;74.30;11.05;;;;;;;24.42;27.90;101241.31;5020824;28;20050;-85
2023/05/12 11:19:47;;;;;;;4.63;3.67;;;;;;;23.66;27.89;101249.16;5008039;28;20113;-83
2023/05/12 11:22:19;;;;;;;5.55;4.00;;;;;;;23.68;28.84;101244.53;4992524;28;20045;-84
2023/05/12 11:24:46;;;;;;;7.70;3.83;;;;;;;22.90;29.38;101245.97;5010894;28;20052;-84
2023/05/12 11:27:15;;;;;;;141.52;20.33;;;;;;;23.31;28.33;101240.63;4991118;28;20132;-84
2023/05/12 11:29:42;;;;;;;21.27;6.10;;;;;;;23.67;28.76;101233.84;4991236;28;20128;-83
2023/05/12 11:32:11;;;;;;;7.82;3.78;;;;;;;24.17;28.71;101241.22;4973088;28;20066;-83
2023/05/12 11:34:38;;;;;;;4.25;3.30;;;;;;;23.87;28.53;101228.81;4988650;28;20523;-82